sensor_id;sensor_type;location;lat;lon;timestamp;P1;durP1;ratioP1;P2;durP2;ratioP2
22531;SDS011;11432;46.924;7.114;2023-11-21T00:01:35;1.38;;;0.47;;
22531;SDS011;11432;46.924;7.114;2023-11-21T00:04:01;3.05;;;0.40;;
22531;SDS011;11432;46.924;7.114;2023-11-21T00:06:27;1.05;;;0.40;;
22531;SDS011;11432;46.924;7.114;2023-11-21T00:08:52;2.97;;;0.30;;
22531;SDS011;11432;46.924;7.114;2023-11-21T00:11:18;5.03;;;0.60;;
22531;SDS011;11432;46.924;7.114;2023-11-21T00:13:43;4.65;;;0.60;;
22531;SDS011;11432;46.924;7.114;2023-11-21T00:16:10;1.55;;;0.57;;
22531;SDS011;11432;46.924;7.114;2023-11-21T00:18:36;3.60;;;0.55;;
22531;SDS011;11432;46.924;7.114;2023-11-21T00:21:01;2.28;;;0.47;;
22531;SDS011;11432;46.924;7.114;2023-11-21T00:23:28;3.13;;;0.45;;
22531;SDS011;11432;46.924;7.114;2023-11-21T00:25:54;2.25;;;0.50;;
22531;SDS011;11432;46.924;7.114;2023-11-21T00:28:19;4.00;;;0.70;;
22531;SDS011;11432;46.924;7.114;2023-11-21T00:30:45;2.20;;;0.50;;
22531;SDS011;11432;46.924;7.114;2023-11-21T00:33:11;2.92;;;0.70;;
22531;SDS011;11432;46.924;7.114;2023-11-21T00:35:36;3.45;;;0.63;;
22531;SDS011;11432;46.924;7.114;2023-11-21T00:38:02;2.08;;;0.50;;
22531;SDS011;11432;46.924;7.114;2023-11-21T00:40:28;2.35;;;0.50;;
22531;SDS011;11432;46.924;7.114;2023-11-21T00:42:54;2.50;;;0.40;;
22531;SDS011;11432;46.924;7.114;2023-11-21T00:45:21;3.88;;;0.50;;
22531;SDS011;11432;46.924;7.114;2023-11-21T00:47:46;1.73;;;0.40;;
22531;SDS011;11432;46.924;7.114;2023-11-21T00:50:12;3.60;;;0.57;;
22531;SDS011;11432;46.924;7.114;2023-11-21T00:52:38;1.73;;;0.40;;
22531;SDS011;11432;46.924;7.114;2023-11-21T00:55:06;2.58;;;0.40;;
22531;SDS011;11432;46.924;7.114;2023-11-21T00:57:33;4.97;;;0.47;;
22531;SDS011;11432;46.924;7.114;2023-11-21T00:59:59;1.65;;;0.40;;
22531;SDS011;11432;46.924;7.114;2023-11-21T01:02:25;2.50;;;0.40;;
22531;SDS011;11432;46.924;7.114;2023-11-21T01:04:50;1.63;;;0.38;;
22531;SDS011;11432;46.924;7.114;2023-11-21T01:07:16;1.92;;;0.50;;
22531;SDS011;11432;46.924;7.114;2023-11-21T01:09:45;2.08;;;0.40;;
22531;SDS011;11432;46.924;7.114;2023-11-21T01:12:11;1.77;;;0.30;;
22531;SDS011;11432;46.924;7.114;2023-11-21T01:14:36;1.20;;;0.20;;
22531;SDS011;11432;46.924;7.114;2023-11-21T01:17:02;3.28;;;0.52;;
22531;SDS011;11432;46.924;7.114;2023-11-21T01:19:29;1.42;;;0.57;;
22531;SDS011;11432;46.924;7.114;2023-11-21T01:21:55;1.17;;;0.40;;
22531;SDS011;11432;46.924;7.114;2023-11-21T01:24:22;2.17;;;0.38;;
22531;SDS011;11432;46.924;7.114;2023-11-21T01:26:48;0.65;;;0.30;;
22531;SDS011;11432;46.924;7.114;2023-11-21T01:29:14;2.47;;;0.40;;
22531;SDS011;11432;46.924;7.114;2023-11-21T01:31:40;1.48;;;0.30;;
22531;SDS011;11432;46.924;7.114;2023-11-21T01:34:06;1.95;;;0.50;;
22531;SDS011;11432;46.924;7.114;2023-11-21T01:36:32;1.65;;;0.40;;
22531;SDS011;11432;46.924;7.114;2023-11-21T01:38:58;1.52;;;0.50;;
22531;SDS011;11432;46.924;7.114;2023-11-21T01:41:25;2.28;;;0.52;;
22531;SDS011;11432;46.924;7.114;2023-11-21T01:46:20;2.30;;;0.40;;
22531;SDS011;11432;46.924;7.114;2023-11-21T01:48:46;0.82;;;0.35;;
22531;SDS011;11432;46.924;7.114;2023-11-21T01:51:13;0.50;;;0.30;;
22531;SDS011;11432;46.924;7.114;2023-11-21T01:53:40;3.05;;;0.55;;
22531;SDS011;11432;46.924;7.114;2023-11-21T01:56:06;2.55;;;0.30;;
22531;SDS011;11432;46.924;7.114;2023-11-21T01:58:33;2.47;;;0.40;;
22531;SDS011;11432;46.924;7.114;2023-11-21T02:00:59;1.30;;;0.30;;
22531;SDS011;11432;46.924;7.114;2023-11-21T02:03:25;2.72;;;0.50;;
22531;SDS011;11432;46.924;7.114;2023-11-21T02:05:51;2.38;;;0.40;;
22531;SDS011;11432;46.924;7.114;2023-11-21T02:08:18;1.52;;;0.70;;
22531;SDS011;11432;46.924;7.114;2023-11-21T02:10:44;3.17;;;0.50;;
22531;SDS011;11432;46.924;7.114;2023-11-21T02:13:10;3.05;;;0.50;;
22531;SDS011;11432;46.924;7.114;2023-11-21T02:15:36;2.38;;;0.60;;
22531;SDS011;11432;46.924;7.114;2023-11-21T02:18:03;2.25;;;0.40;;
22531;SDS011;11432;46.924;7.114;2023-11-21T02:20:31;3.80;;;0.63;;
22531;SDS011;11432;46.924;7.114;2023-11-21T02:22:59;4.20;;;0.50;;
22531;SDS011;11432;46.924;7.114;2023-11-21T02:25:31;1.30;;;0.47;;
22531;SDS011;11432;46.924;7.114;2023-11-21T02:27:59;2.63;;;0.50;;
22531;SDS011;11432;46.924;7.114;2023-11-21T02:30:25;2.28;;;0.43;;
22531;SDS011;11432;46.924;7.114;2023-11-21T02:32:53;1.77;;;0.55;;
22531;SDS011;11432;46.924;7.114;2023-11-21T02:35:19;1.27;;;0.30;;
22531;SDS011;11432;46.924;7.114;2023-11-21T02:37:46;2.42;;;0.40;;
22531;SDS011;11432;46.924;7.114;2023-11-21T02:40:12;2.30;;;0.43;;
22531;SDS011;11432;46.924;7.114;2023-11-21T02:42:38;2.50;;;0.50;;
22531;SDS011;11432;46.924;7.114;2023-11-21T02:45:06;0.55;;;0.22;;
22531;SDS011;11432;46.924;7.114;2023-11-21T02:47:33;2.83;;;0.55;;
22531;SDS011;11432;46.924;7.114;2023-11-21T02:49:58;1.75;;;0.40;;
22531;SDS011;11432;46.924;7.114;2023-11-21T02:52:24;3.35;;;0.60;;
22531;SDS011;11432;46.924;7.114;2023-11-21T02:54:50;2.05;;;0.52;;
22531;SDS011;11432;46.924;7.114;2023-11-21T02:57:16;2.35;;;0.60;;
22531;SDS011;11432;46.924;7.114;2023-11-21T02:59:42;2.08;;;0.50;;
22531;SDS011;11432;46.924;7.114;2023-11-21T03:02:07;2.22;;;0.63;;
22531;SDS011;11432;46.924;7.114;2023-11-21T03:04:33;1.20;;;0.32;;
22531;SDS011;11432;46.924;7.114;2023-11-21T03:07:00;3.80;;;0.57;;
22531;SDS011;11432;46.924;7.114;2023-11-21T03:09:25;0.95;;;0.35;;
22531;SDS011;11432;46.924;7.114;2023-11-21T03:11:51;1.27;;;0.30;;
22531;SDS011;11432;46.924;7.114;2023-11-21T03:14:18;2.33;;;0.40;;
22531;SDS011;11432;46.924;7.114;2023-11-21T03:16:43;2.88;;;0.40;;
22531;SDS011;11432;46.924;7.114;2023-11-21T03:19:10;3.47;;;0.50;;
22531;SDS011;11432;46.924;7.114;2023-11-21T03:21:36;0.68;;;0.30;;
22531;SDS011;11432;46.924;7.114;2023-11-21T03:24:01;2.22;;;0.47;;
22531;SDS011;11432;46.924;7.114;2023-11-21T03:26:27;2.05;;;0.50;;
22531;SDS011;11432;46.924;7.114;2023-11-21T03:28:54;2.05;;;0.52;;
22531;SDS011;11432;46.924;7.114;2023-11-21T03:31:20;3.13;;;0.40;;
22531;SDS011;11432;46.924;7.114;2023-11-21T03:33:46;1.33;;;0.50;;
22531;SDS011;11432;46.924;7.114;2023-11-21T03:36:12;3.05;;;0.60;;
22531;SDS011;11432;46.924;7.114;2023-11-21T03:38:39;2.47;;;0.50;;
22531;SDS011;11432;46.924;7.114;2023-11-21T03:41:06;3.47;;;0.55;;
22531;SDS011;11432;46.924;7.114;2023-11-21T03:43:31;2.20;;;0.40;;
22531;SDS011;11432;46.924;7.114;2023-11-21T03:45:57;2.53;;;0.60;;
22531;SDS011;11432;46.924;7.114;2023-11-21T03:48:22;4.22;;;0.63;;
22531;SDS011;11432;46.924;7.114;2023-11-21T03:50:48;1.42;;;0.43;;
22531;SDS011;11432;46.924;7.114;2023-11-21T03:53:13;2.33;;;0.40;;
22531;SDS011;11432;46.924;7.114;2023-11-21T03:55:39;1.95;;;0.47;;
22531;SDS011;11432;46.924;7.114;2023-11-21T03:58:05;1.00;;;0.35;;
22531;SDS011;11432;46.924;7.114;2023-11-21T04:00:30;8.82;;;0.65;;
22531;SDS011;11432;46.924;7.114;2023-11-21T04:02:56;2.15;;;0.40;;
22531;SDS011;11432;46.924;7.114;2023-11-21T04:05:22;1.98;;;0.50;;
22531;SDS011;11432;46.924;7.114;2023-11-21T04:07:51;2.85;;;0.60;;
22531;SDS011;11432;46.924;7.114;2023-11-21T04:10:17;4.15;;;0.47;;
22531;SDS011;11432;46.924;7.114;2023-11-21T04:12:43;3.30;;;0.57;;
22531;SDS011;11432;46.924;7.114;2023-11-21T04:15:10;1.52;;;0.32;;
22531;SDS011;11432;46.924;7.114;2023-11-21T04:17:38;1.92;;;0.70;;
22531;SDS011;11432;46.924;7.114;2023-11-21T04:20:04;1.50;;;0.70;;
22531;SDS011;11432;46.924;7.114;2023-11-21T04:22:33;4.00;;;1.10;;
22531;SDS011;11432;46.924;7.114;2023-11-21T04:25:01;2.90;;;1.00;;
22531;SDS011;11432;46.924;7.114;2023-11-21T04:27:27;3.00;;;1.02;;
22531;SDS011;11432;46.924;7.114;2023-11-21T04:29:53;3.20;;;1.02;;
22531;SDS011;11432;46.924;7.114;2023-11-21T04:32:19;4.45;;;0.60;;
22531;SDS011;11432;46.924;7.114;2023-11-21T04:34:44;3.35;;;0.70;;
22531;SDS011;11432;46.924;7.114;2023-11-21T04:37:10;3.53;;;0.38;;
22531;SDS011;11432;46.924;7.114;2023-11-21T04:39:35;3.55;;;0.73;;
22531;SDS011;11432;46.924;7.114;2023-11-21T04:42:01;9.68;;;1.30;;
22531;SDS011;11432;46.924;7.114;2023-11-21T04:44:27;12.23;;;1.73;;
22531;SDS011;11432;46.924;7.114;2023-11-21T04:46:52;9.23;;;1.63;;
22531;SDS011;11432;46.924;7.114;2023-11-21T04:49:18;8.63;;;1.27;;
22531;SDS011;11432;46.924;7.114;2023-11-21T04:51:44;7.50;;;1.08;;
22531;SDS011;11432;46.924;7.114;2023-11-21T04:54:09;6.30;;;1.15;;
22531;SDS011;11432;46.924;7.114;2023-11-21T04:56:35;2.50;;;0.70;;
22531;SDS011;11432;46.924;7.114;2023-11-21T04:59:01;2.53;;;0.52;;
22531;SDS011;11432;46.924;7.114;2023-11-21T05:01:26;1.77;;;0.60;;
22531;SDS011;11432;46.924;7.114;2023-11-21T05:03:52;4.10;;;0.57;;
22531;SDS011;11432;46.924;7.114;2023-11-21T05:06:18;2.63;;;0.50;;
22531;SDS011;11432;46.924;7.114;2023-11-21T05:08:43;2.50;;;0.40;;
22531;SDS011;11432;46.924;7.114;2023-11-21T05:11:09;4.85;;;0.50;;
22531;SDS011;11432;46.924;7.114;2023-11-21T05:13:35;2.10;;;0.43;;
22531;SDS011;11432;46.924;7.114;2023-11-21T05:16:02;1.98;;;0.60;;
22531;SDS011;11432;46.924;7.114;2023-11-21T05:18:29;1.58;;;0.70;;
22531;SDS011;11432;46.924;7.114;2023-11-21T05:20:55;1.50;;;0.50;;
22531;SDS011;11432;46.924;7.114;2023-11-21T05:23:21;1.10;;;0.40;;
22531;SDS011;11432;46.924;7.114;2023-11-21T05:25:47;4.85;;;0.52;;
22531;SDS011;11432;46.924;7.114;2023-11-21T05:28:12;2.40;;;0.50;;
22531;SDS011;11432;46.924;7.114;2023-11-21T05:30:38;5.35;;;0.70;;
22531;SDS011;11432;46.924;7.114;2023-11-21T05:33:04;1.70;;;0.52;;
22531;SDS011;11432;46.924;7.114;2023-11-21T05:35:30;2.47;;;0.80;;
22531;SDS011;11432;46.924;7.114;2023-11-21T05:37:56;1.90;;;0.65;;
22531;SDS011;11432;46.924;7.114;2023-11-21T05:40:21;1.67;;;0.50;;
22531;SDS011;11432;46.924;7.114;2023-11-21T05:42:47;2.25;;;0.38;;
22531;SDS011;11432;46.924;7.114;2023-11-21T05:45:13;3.88;;;0.75;;
22531;SDS011;11432;46.924;7.114;2023-11-21T05:47:41;2.35;;;0.43;;
22531;SDS011;11432;46.924;7.114;2023-11-21T05:50:08;1.33;;;0.40;;
22531;SDS011;11432;46.924;7.114;2023-11-21T05:52:36;1.40;;;0.40;;
22531;SDS011;11432;46.924;7.114;2023-11-21T05:55:02;3.10;;;0.43;;
22531;SDS011;11432;46.924;7.114;2023-11-21T05:57:29;3.35;;;0.57;;
22531;SDS011;11432;46.924;7.114;2023-11-21T05:59:55;2.28;;;0.52;;
22531;SDS011;11432;46.924;7.114;2023-11-21T06:02:21;2.17;;;0.50;;
22531;SDS011;11432;46.924;7.114;2023-11-21T06:04:46;3.15;;;0.47;;
22531;SDS011;11432;46.924;7.114;2023-11-21T06:07:12;2.63;;;0.60;;
22531;SDS011;11432;46.924;7.114;2023-11-21T06:09:37;1.15;;;0.45;;
22531;SDS011;11432;46.924;7.114;2023-11-21T06:12:03;3.42;;;0.60;;
22531;SDS011;11432;46.924;7.114;2023-11-21T06:14:29;4.38;;;0.40;;
22531;SDS011;11432;46.924;7.114;2023-11-21T06:16:55;3.05;;;0.50;;
22531;SDS011;11432;46.924;7.114;2023-11-21T06:19:21;2.83;;;0.57;;
22531;SDS011;11432;46.924;7.114;2023-11-21T06:21:47;3.53;;;0.60;;
22531;SDS011;11432;46.924;7.114;2023-11-21T06:24:12;1.83;;;0.50;;
22531;SDS011;11432;46.924;7.114;2023-11-21T06:26:40;2.28;;;0.50;;
22531;SDS011;11432;46.924;7.114;2023-11-21T06:29:06;2.58;;;0.50;;
22531;SDS011;11432;46.924;7.114;2023-11-21T06:31:32;1.13;;;0.30;;
22531;SDS011;11432;46.924;7.114;2023-11-21T06:33:58;3.40;;;0.60;;
22531;SDS011;11432;46.924;7.114;2023-11-21T06:36:24;1.55;;;0.40;;
22531;SDS011;11432;46.924;7.114;2023-11-21T06:38:51;2.38;;;0.85;;
22531;SDS011;11432;46.924;7.114;2023-11-21T06:41:17;3.17;;;0.70;;
22531;SDS011;11432;46.924;7.114;2023-11-21T06:43:43;3.83;;;0.80;;
22531;SDS011;11432;46.924;7.114;2023-11-21T06:46:12;1.75;;;0.60;;
22531;SDS011;11432;46.924;7.114;2023-11-21T06:48:40;1.92;;;0.70;;
22531;SDS011;11432;46.924;7.114;2023-11-21T06:51:07;3.28;;;0.63;;
22531;SDS011;11432;46.924;7.114;2023-11-21T06:53:33;3.08;;;0.50;;
22531;SDS011;11432;46.924;7.114;2023-11-21T06:55:59;2.70;;;0.50;;
22531;SDS011;11432;46.924;7.114;2023-11-21T06:58:24;2.38;;;0.43;;
22531;SDS011;11432;46.924;7.114;2023-11-21T07:00:50;6.65;;;0.77;;
22531;SDS011;11432;46.924;7.114;2023-11-21T07:03:17;2.20;;;0.60;;
22531;SDS011;11432;46.924;7.114;2023-11-21T07:05:44;1.30;;;0.50;;
22531;SDS011;11432;46.924;7.114;2023-11-21T07:08:10;1.77;;;0.63;;
22531;SDS011;11432;46.924;7.114;2023-11-21T07:10:35;3.05;;;0.60;;
22531;SDS011;11432;46.924;7.114;2023-11-21T07:13:01;2.55;;;0.73;;
22531;SDS011;11432;46.924;7.114;2023-11-21T07:15:27;1.88;;;0.55;;
22531;SDS011;11432;46.924;7.114;2023-11-21T07:17:53;1.60;;;0.60;;
22531;SDS011;11432;46.924;7.114;2023-11-21T07:20:19;3.30;;;0.88;;
22531;SDS011;11432;46.924;7.114;2023-11-21T07:22:45;3.30;;;0.80;;
22531;SDS011;11432;46.924;7.114;2023-11-21T07:25:10;1.92;;;0.60;;
22531;SDS011;11432;46.924;7.114;2023-11-21T07:27:36;2.53;;;0.55;;
22531;SDS011;11432;46.924;7.114;2023-11-21T07:30:02;2.80;;;0.80;;
22531;SDS011;11432;46.924;7.114;2023-11-21T07:32:30;2.97;;;0.60;;
22531;SDS011;11432;46.924;7.114;2023-11-21T07:34:56;4.35;;;1.58;;
22531;SDS011;11432;46.924;7.114;2023-11-21T07:37:24;4.38;;;1.10;;
22531;SDS011;11432;46.924;7.114;2023-11-21T07:39:51;5.35;;;1.45;;
22531;SDS011;11432;46.924;7.114;2023-11-21T07:42:21;4.40;;;1.35;;
22531;SDS011;11432;46.924;7.114;2023-11-21T07:44:51;1.63;;;0.70;;
22531;SDS011;11432;46.924;7.114;2023-11-21T07:47:17;2.67;;;0.90;;
22531;SDS011;11432;46.924;7.114;2023-11-21T07:49:56;3.97;;;1.20;;
22531;SDS011;11432;46.924;7.114;2023-11-21T07:52:22;3.88;;;1.13;;
22531;SDS011;11432;46.924;7.114;2023-11-21T07:54:48;2.25;;;1.00;;
22531;SDS011;11432;46.924;7.114;2023-11-21T07:57:13;4.68;;;0.90;;
22531;SDS011;11432;46.924;7.114;2023-11-21T07:59:40;4.43;;;0.95;;
22531;SDS011;11432;46.924;7.114;2023-11-21T08:02:06;2.25;;;0.60;;
22531;SDS011;11432;46.924;7.114;2023-11-21T08:04:32;2.55;;;0.80;;
22531;SDS011;11432;46.924;7.114;2023-11-21T08:06:57;1.88;;;0.60;;
22531;SDS011;11432;46.924;7.114;2023-11-21T08:09:23;1.63;;;0.52;;
22531;SDS011;11432;46.924;7.114;2023-11-21T08:11:49;3.50;;;0.82;;
22531;SDS011;11432;46.924;7.114;2023-11-21T08:14:15;1.27;;;0.55;;
22531;SDS011;11432;46.924;7.114;2023-11-21T08:16:40;1.40;;;0.60;;
22531;SDS011;11432;46.924;7.114;2023-11-21T08:19:06;2.03;;;0.60;;
22531;SDS011;11432;46.924;7.114;2023-11-21T08:21:33;4.15;;;0.90;;
22531;SDS011;11432;46.924;7.114;2023-11-21T08:23:59;10.90;;;3.70;;
22531;SDS011;11432;46.924;7.114;2023-11-21T08:26:25;10.07;;;2.75;;
22531;SDS011;11432;46.924;7.114;2023-11-21T08:28:51;6.60;;;1.80;;
22531;SDS011;11432;46.924;7.114;2023-11-21T08:31:25;4.05;;;1.23;;
22531;SDS011;11432;46.924;7.114;2023-11-21T08:33:51;2.60;;;0.70;;
22531;SDS011;11432;46.924;7.114;2023-11-21T08:36:16;3.13;;;0.60;;
22531;SDS011;11432;46.924;7.114;2023-11-21T08:38:42;3.63;;;0.95;;
22531;SDS011;11432;46.924;7.114;2023-11-21T08:41:07;2.72;;;1.10;;
22531;SDS011;11432;46.924;7.114;2023-11-21T08:43:34;3.10;;;0.70;;
22531;SDS011;11432;46.924;7.114;2023-11-21T08:46:00;2.20;;;0.50;;
22531;SDS011;11432;46.924;7.114;2023-11-21T08:48:26;4.05;;;1.52;;
22531;SDS011;11432;46.924;7.114;2023-11-21T08:50:53;2.83;;;0.70;;
22531;SDS011;11432;46.924;7.114;2023-11-21T08:53:19;3.47;;;0.55;;
22531;SDS011;11432;46.924;7.114;2023-11-21T08:55:44;2.85;;;0.70;;
22531;SDS011;11432;46.924;7.114;2023-11-21T08:58:10;2.75;;;0.77;;
22531;SDS011;11432;46.924;7.114;2023-11-21T09:00:37;3.08;;;1.52;;
22531;SDS011;11432;46.924;7.114;2023-11-21T09:03:05;4.90;;;1.02;;
22531;SDS011;11432;46.924;7.114;2023-11-21T09:05:33;1.93;;;0.50;;
22531;SDS011;11432;46.924;7.114;2023-11-21T09:07:59;4.97;;;0.90;;
22531;SDS011;11432;46.924;7.114;2023-11-21T09:10:25;2.92;;;0.70;;
22531;SDS011;11432;46.924;7.114;2023-11-21T09:12:50;2.95;;;0.75;;
22531;SDS011;11432;46.924;7.114;2023-11-21T09:15:17;3.97;;;1.00;;
22531;SDS011;11432;46.924;7.114;2023-11-21T09:17:43;1.67;;;0.63;;
22531;SDS011;11432;46.924;7.114;2023-11-21T09:20:09;2.42;;;0.80;;
22531;SDS011;11432;46.924;7.114;2023-11-21T09:22:35;2.25;;;0.60;;
22531;SDS011;11432;46.924;7.114;2023-11-21T09:25:01;4.68;;;0.90;;
22531;SDS011;11432;46.924;7.114;2023-11-21T09:27:30;3.78;;;0.82;;
22531;SDS011;11432;46.924;7.114;2023-11-21T09:29:56;4.13;;;0.63;;
22531;SDS011;11432;46.924;7.114;2023-11-21T09:32:23;2.85;;;0.75;;
22531;SDS011;11432;46.924;7.114;2023-11-21T09:34:49;3.20;;;0.80;;
22531;SDS011;11432;46.924;7.114;2023-11-21T09:37:15;2.88;;;1.00;;
22531;SDS011;11432;46.924;7.114;2023-11-21T09:39:41;4.13;;;0.90;;
22531;SDS011;11432;46.924;7.114;2023-11-21T09:42:12;1.70;;;0.55;;
22531;SDS011;11432;46.924;7.114;2023-11-21T09:47:16;5.55;;;0.90;;
22531;SDS011;11432;46.924;7.114;2023-11-21T09:49:44;1.85;;;0.60;;
22531;SDS011;11432;46.924;7.114;2023-11-21T09:52:15;3.20;;;0.90;;
22531;SDS011;11432;46.924;7.114;2023-11-21T09:54:49;2.58;;;0.70;;
22531;SDS011;11432;46.924;7.114;2023-11-21T09:57:16;2.22;;;0.50;;
22531;SDS011;11432;46.924;7.114;2023-11-21T09:59:42;2.33;;;0.80;;
22531;SDS011;11432;46.924;7.114;2023-11-21T10:02:10;4.03;;;0.80;;
22531;SDS011;11432;46.924;7.114;2023-11-21T10:04:38;2.10;;;0.70;;
22531;SDS011;11432;46.924;7.114;2023-11-21T10:07:04;3.67;;;0.88;;
22531;SDS011;11432;46.924;7.114;2023-11-21T10:09:34;2.35;;;0.70;;
22531;SDS011;11432;46.924;7.114;2023-11-21T10:12:02;5.93;;;0.80;;
22531;SDS011;11432;46.924;7.114;2023-11-21T10:14:33;3.78;;;1.00;;
22531;SDS011;11432;46.924;7.114;2023-11-21T10:17:02;4.50;;;0.63;;
22531;SDS011;11432;46.924;7.114;2023-11-21T10:19:28;2.95;;;0.60;;
22531;SDS011;11432;46.924;7.114;2023-11-21T10:21:55;3.97;;;1.13;;
22531;SDS011;11432;46.924;7.114;2023-11-21T10:24:22;4.05;;;0.95;;
22531;SDS011;11432;46.924;7.114;2023-11-21T10:26:48;4.40;;;0.70;;
22531;SDS011;11432;46.924;7.114;2023-11-21T10:29:16;3.88;;;0.95;;
22531;SDS011;11432;46.924;7.114;2023-11-21T10:31:48;3.20;;;0.70;;
22531;SDS011;11432;46.924;7.114;2023-11-21T10:34:15;2.22;;;0.60;;
22531;SDS011;11432;46.924;7.114;2023-11-21T10:36:41;2.95;;;0.70;;
22531;SDS011;11432;46.924;7.114;2023-11-21T10:39:08;4.45;;;0.40;;
22531;SDS011;11432;46.924;7.114;2023-11-21T10:41:37;1.90;;;0.47;;
22531;SDS011;11432;46.924;7.114;2023-11-21T10:44:03;2.38;;;0.63;;
22531;SDS011;11432;46.924;7.114;2023-11-21T10:46:31;2.13;;;0.40;;
22531;SDS011;11432;46.924;7.114;2023-11-21T10:48:57;2.55;;;0.80;;
22531;SDS011;11432;46.924;7.114;2023-11-21T10:51:22;4.35;;;0.73;;
22531;SDS011;11432;46.924;7.114;2023-11-21T10:53:51;3.08;;;0.65;;
22531;SDS011;11432;46.924;7.114;2023-11-21T10:56:18;1.65;;;0.50;;
22531;SDS011;11432;46.924;7.114;2023-11-21T10:58:45;2.35;;;0.57;;
22531;SDS011;11432;46.924;7.114;2023-11-21T11:01:11;2.75;;;0.57;;
22531;SDS011;11432;46.924;7.114;2023-11-21T11:03:39;2.70;;;0.70;;
22531;SDS011;11432;46.924;7.114;2023-11-21T11:06:06;4.72;;;0.60;;
22531;SDS011;11432;46.924;7.114;2023-11-21T11:08:36;3.13;;;0.70;;
22531;SDS011;11432;46.924;7.114;2023-11-21T11:11:03;1.52;;;0.60;;
22531;SDS011;11432;46.924;7.114;2023-11-21T11:13:32;3.33;;;0.95;;
22531;SDS011;11432;46.924;7.114;2023-11-21T11:15:58;3.45;;;0.70;;
22531;SDS011;11432;46.924;7.114;2023-11-21T11:18:29;1.50;;;0.30;;
22531;SDS011;11432;46.924;7.114;2023-11-21T11:21:01;2.30;;;0.50;;
22531;SDS011;11432;46.924;7.114;2023-11-21T11:28:52;1.17;;;0.40;;
22531;SDS011;11432;46.924;7.114;2023-11-21T11:31:46;1.58;;;0.30;;
22531;SDS011;11432;46.924;7.114;2023-11-21T11:34:42;1.20;;;0.40;;
22531;SDS011;11432;46.924;7.114;2023-11-21T11:37:12;1.90;;;0.45;;
22531;SDS011;11432;46.924;7.114;2023-11-21T11:39:38;1.60;;;0.40;;
22531;SDS011;11432;46.924;7.114;2023-11-21T11:42:14;4.00;;;0.50;;
22531;SDS011;11432;46.924;7.114;2023-11-21T11:47:35;2.20;;;0.50;;
22531;SDS011;11432;46.924;7.114;2023-11-21T11:55:05;1.60;;;0.47;;
22531;SDS011;11432;46.924;7.114;2023-11-21T11:57:35;2.47;;;0.30;;
22531;SDS011;11432;46.924;7.114;2023-11-21T12:02:40;2.47;;;0.30;;
22531;SDS011;11432;46.924;7.114;2023-11-21T12:05:13;3.00;;;0.22;;
22531;SDS011;11432;46.924;7.114;2023-11-21T12:07:41;0.55;;;0.28;;
22531;SDS011;11432;46.924;7.114;2023-11-21T12:10:28;1.17;;;0.30;;
22531;SDS011;11432;46.924;7.114;2023-11-21T12:12:55;1.25;;;0.30;;
22531;SDS011;11432;46.924;7.114;2023-11-21T12:15:23;2.05;;;0.40;;
22531;SDS011;11432;46.924;7.114;2023-11-21T12:17:50;3.65;;;0.70;;
22531;SDS011;11432;46.924;7.114;2023-11-21T12:20:19;4.00;;;0.60;;
22531;SDS011;11432;46.924;7.114;2023-11-21T12:22:53;0.93;;;0.50;;
22531;SDS011;11432;46.924;7.114;2023-11-21T12:25:20;1.15;;;0.30;;
22531;SDS011;11432;46.924;7.114;2023-11-21T12:27:46;0.52;;;0.22;;
22531;SDS011;11432;46.924;7.114;2023-11-21T12:30:15;3.35;;;0.32;;
22531;SDS011;11432;46.924;7.114;2023-11-21T12:32:43;5.60;;;0.50;;
22531;SDS011;11432;46.924;7.114;2023-11-21T12:35:11;1.13;;;0.30;;
22531;SDS011;11432;46.924;7.114;2023-11-21T12:37:37;1.23;;;0.47;;
22531;SDS011;11432;46.924;7.114;2023-11-21T12:40:07;0.35;;;0.10;;
22531;SDS011;11432;46.924;7.114;2023-11-21T12:42:36;1.90;;;0.40;;
22531;SDS011;11432;46.924;7.114;2023-11-21T12:45:09;0.55;;;0.20;;
22531;SDS011;11432;46.924;7.114;2023-11-21T12:47:40;1.55;;;0.32;;
22531;SDS011;11432;46.924;7.114;2023-11-21T12:50:06;0.20;;;0.15;;
22531;SDS011;11432;46.924;7.114;2023-11-21T12:52:39;0.90;;;0.28;;
22531;SDS011;11432;46.924;7.114;2023-11-21T12:55:12;0.20;;;0.10;;
22531;SDS011;11432;46.924;7.114;2023-11-21T12:57:41;1.02;;;0.40;;
22531;SDS011;11432;46.924;7.114;2023-11-21T13:00:08;0.20;;;0.20;;
22531;SDS011;11432;46.924;7.114;2023-11-21T13:02:38;0.30;;;0.20;;
22531;SDS011;11432;46.924;7.114;2023-11-21T13:07:43;0.88;;;0.32;;
22531;SDS011;11432;46.924;7.114;2023-11-21T13:10:12;1.57;;;0.33;;
22531;SDS011;11432;46.924;7.114;2023-11-21T13:12:44;1.42;;;0.30;;
22531;SDS011;11432;46.924;7.114;2023-11-21T13:15:14;0.85;;;0.43;;
22531;SDS011;11432;46.924;7.114;2023-11-21T13:17:45;2.63;;;0.50;;
22531;SDS011;11432;46.924;7.114;2023-11-21T13:20:12;0.80;;;0.30;;
22531;SDS011;11432;46.924;7.114;2023-11-21T13:22:50;0.88;;;0.20;;
22531;SDS011;11432;46.924;7.114;2023-11-21T13:25:24;0.77;;;0.20;;
22531;SDS011;11432;46.924;7.114;2023-11-21T13:30:19;0.45;;;0.20;;
22531;SDS011;11432;46.924;7.114;2023-11-21T13:32:51;0.50;;;0.10;;
22531;SDS011;11432;46.924;7.114;2023-11-21T13:35:19;0.45;;;0.30;;
22531;SDS011;11432;46.924;7.114;2023-11-21T13:37:46;0.30;;;0.20;;
22531;SDS011;11432;46.924;7.114;2023-11-21T13:40:15;0.50;;;0.20;;
22531;SDS011;11432;46.924;7.114;2023-11-21T13:42:45;1.55;;;0.20;;
22531;SDS011;11432;46.924;7.114;2023-11-21T13:45:11;0.38;;;0.20;;
22531;SDS011;11432;46.924;7.114;2023-11-21T13:47:37;0.50;;;0.20;;
22531;SDS011;11432;46.924;7.114;2023-11-21T13:50:05;0.65;;;0.20;;
22531;SDS011;11432;46.924;7.114;2023-11-21T13:52:39;0.82;;;0.30;;
22531;SDS011;11432;46.924;7.114;2023-11-21T13:55:04;2.45;;;0.40;;
22531;SDS011;11432;46.924;7.114;2023-11-21T13:57:36;0.28;;;0.10;;
22531;SDS011;11432;46.924;7.114;2023-11-21T14:00:03;0.73;;;0.40;;
22531;SDS011;11432;46.924;7.114;2023-11-21T14:02:35;0.60;;;0.25;;
22531;SDS011;11432;46.924;7.114;2023-11-21T14:05:07;0.38;;;0.15;;
22531;SDS011;11432;46.924;7.114;2023-11-21T14:07:34;1.58;;;0.20;;
22531;SDS011;11432;46.924;7.114;2023-11-21T14:10:04;3.72;;;0.30;;
22531;SDS011;11432;46.924;7.114;2023-11-21T14:12:33;0.40;;;0.30;;
22531;SDS011;11432;46.924;7.114;2023-11-21T14:15:01;0.50;;;0.20;;
22531;SDS011;11432;46.924;7.114;2023-11-21T14:17:30;1.52;;;0.40;;
22531;SDS011;11432;46.924;7.114;2023-11-21T14:19:55;0.68;;;0.20;;
22531;SDS011;11432;46.924;7.114;2023-11-21T14:22:21;0.47;;;0.20;;
22531;SDS011;11432;46.924;7.114;2023-11-21T14:24:47;2.55;;;0.28;;
22531;SDS011;11432;46.924;7.114;2023-11-21T14:27:15;2.05;;;0.20;;
22531;SDS011;11432;46.924;7.114;2023-11-21T14:29:41;0.20;;;0.10;;
22531;SDS011;11432;46.924;7.114;2023-11-21T14:32:09;2.40;;;0.40;;
22531;SDS011;11432;46.924;7.114;2023-11-21T14:34:35;1.38;;;0.30;;
22531;SDS011;11432;46.924;7.114;2023-11-21T14:37:01;1.92;;;0.30;;
22531;SDS011;11432;46.924;7.114;2023-11-21T14:39:30;0.45;;;0.30;;
22531;SDS011;11432;46.924;7.114;2023-11-21T14:41:56;0.80;;;0.20;;
22531;SDS011;11432;46.924;7.114;2023-11-21T14:44:23;0.90;;;0.20;;
22531;SDS011;11432;46.924;7.114;2023-11-21T14:46:53;0.95;;;0.32;;
22531;SDS011;11432;46.924;7.114;2023-11-21T14:49:20;0.73;;;0.40;;
22531;SDS011;11432;46.924;7.114;2023-11-21T14:51:47;0.77;;;0.28;;
22531;SDS011;11432;46.924;7.114;2023-11-21T14:54:28;0.32;;;0.22;;
22531;SDS011;11432;46.924;7.114;2023-11-21T14:57:11;0.90;;;0.43;;
22531;SDS011;11432;46.924;7.114;2023-11-21T14:59:43;1.70;;;0.50;;
22531;SDS011;11432;46.924;7.114;2023-11-21T15:02:16;0.60;;;0.43;;
22531;SDS011;11432;46.924;7.114;2023-11-21T15:04:46;0.40;;;0.30;;
22531;SDS011;11432;46.924;7.114;2023-11-21T15:07:13;1.80;;;0.50;;
22531;SDS011;11432;46.924;7.114;2023-11-21T15:09:39;3.15;;;0.30;;
22531;SDS011;11432;46.924;7.114;2023-11-21T15:14:43;1.40;;;0.38;;
22531;SDS011;11432;46.924;7.114;2023-11-21T15:17:15;2.53;;;0.50;;